sensor_id;sensor_type;location;lat;lon;timestamp;P1;durP1;ratioP1;P2;durP2;ratioP2
6850;SDS011;3464;42.728;23.296;2023-11-22T00:01:34;40.30;;;23.27;;
6850;SDS011;3464;42.728;23.296;2023-11-22T00:04:02;35.93;;;20.27;;
6850;SDS011;3464;42.728;23.296;2023-11-22T00:06:31;39.67;;;21.67;;
6850;SDS011;3464;42.728;23.296;2023-11-22T00:08:58;38.30;;;20.00;;
6850;SDS011;3464;42.728;23.296;2023-11-22T00:11:24;37.60;;;20.30;;
6850;SDS011;3464;42.728;23.296;2023-11-22T00:13:51;35.77;;;18.67;;
6850;SDS011;3464;42.728;23.296;2023-11-22T00:16:18;28.70;;;14.83;;
6850;SDS011;3464;42.728;23.296;2023-11-22T00:18:44;33.40;;;17.07;;
6850;SDS011;3464;42.728;23.296;2023-11-22T00:21:11;35.03;;;17.10;;
6850;SDS011;3464;42.728;23.296;2023-11-22T00:23:38;33.50;;;16.87;;
6850;SDS011;3464;42.728;23.296;2023-11-22T00:26:04;27.93;;;15.37;;
6850;SDS011;3464;42.728;23.296;2023-11-22T00:28:32;33.00;;;16.67;;
6850;SDS011;3464;42.728;23.296;2023-11-22T00:30:58;32.93;;;17.47;;
6850;SDS011;3464;42.728;23.296;2023-11-22T00:33:24;33.10;;;16.50;;
6850;SDS011;3464;42.728;23.296;2023-11-22T00:35:51;33.73;;;16.73;;
6850;SDS011;3464;42.728;23.296;2023-11-22T00:38:21;37.30;;;16.87;;
6850;SDS011;3464;42.728;23.296;2023-11-22T00:40:48;29.40;;;15.30;;
6850;SDS011;3464;42.728;23.296;2023-11-22T00:43:15;31.50;;;16.33;;
6850;SDS011;3464;42.728;23.296;2023-11-22T00:45:42;34.33;;;17.00;;
6850;SDS011;3464;42.728;23.296;2023-11-22T00:48:09;34.80;;;17.03;;
6850;SDS011;3464;42.728;23.296;2023-11-22T00:50:37;31.60;;;17.07;;
6850;SDS011;3464;42.728;23.296;2023-11-22T00:53:04;39.23;;;19.10;;
6850;SDS011;3464;42.728;23.296;2023-11-22T00:55:32;32.80;;;16.80;;
6850;SDS011;3464;42.728;23.296;2023-11-22T00:57:59;30.77;;;17.17;;
6850;SDS011;3464;42.728;23.296;2023-11-22T01:00:26;32.10;;;17.20;;
6850;SDS011;3464;42.728;23.296;2023-11-22T01:02:56;35.37;;;18.87;;
6850;SDS011;3464;42.728;23.296;2023-11-22T01:05:27;38.50;;;17.70;;
6850;SDS011;3464;42.728;23.296;2023-11-22T01:07:54;35.40;;;18.90;;
6850;SDS011;3464;42.728;23.296;2023-11-22T01:10:21;37.73;;;19.43;;
6850;SDS011;3464;42.728;23.296;2023-11-22T01:12:47;38.70;;;18.10;;
6850;SDS011;3464;42.728;23.296;2023-11-22T01:15:14;37.20;;;19.10;;
6850;SDS011;3464;42.728;23.296;2023-11-22T01:17:40;36.83;;;19.50;;
6850;SDS011;3464;42.728;23.296;2023-11-22T01:20:07;37.23;;;19.40;;
6850;SDS011;3464;42.728;23.296;2023-11-22T01:22:34;38.73;;;21.43;;
6850;SDS011;3464;42.728;23.296;2023-11-22T01:25:01;38.20;;;20.60;;
6850;SDS011;3464;42.728;23.296;2023-11-22T01:27:27;41.03;;;21.03;;
6850;SDS011;3464;42.728;23.296;2023-11-22T01:29:54;41.07;;;20.97;;
6850;SDS011;3464;42.728;23.296;2023-11-22T01:32:21;41.53;;;20.70;;
6850;SDS011;3464;42.728;23.296;2023-11-22T01:34:47;43.40;;;21.07;;
6850;SDS011;3464;42.728;23.296;2023-11-22T01:37:16;41.90;;;21.23;;
6850;SDS011;3464;42.728;23.296;2023-11-22T01:39:43;40.50;;;21.50;;
6850;SDS011;3464;42.728;23.296;2023-11-22T01:42:10;41.80;;;20.40;;
6850;SDS011;3464;42.728;23.296;2023-11-22T01:44:36;38.87;;;20.30;;
6850;SDS011;3464;42.728;23.296;2023-11-22T01:47:03;41.33;;;19.80;;
6850;SDS011;3464;42.728;23.296;2023-11-22T01:49:30;39.80;;;20.27;;
6850;SDS011;3464;42.728;23.296;2023-11-22T01:51:57;39.83;;;19.93;;
6850;SDS011;3464;42.728;23.296;2023-11-22T01:54:24;40.30;;;19.87;;
6850;SDS011;3464;42.728;23.296;2023-11-22T01:56:50;40.60;;;21.00;;
6850;SDS011;3464;42.728;23.296;2023-11-22T01:59:17;40.27;;;21.60;;
6850;SDS011;3464;42.728;23.296;2023-11-22T02:01:43;40.93;;;20.70;;
6850;SDS011;3464;42.728;23.296;2023-11-22T02:04:11;40.50;;;21.27;;
6850;SDS011;3464;42.728;23.296;2023-11-22T02:06:38;40.63;;;21.13;;
6850;SDS011;3464;42.728;23.296;2023-11-22T02:09:05;43.00;;;22.27;;
6850;SDS011;3464;42.728;23.296;2023-11-22T02:11:31;43.23;;;20.80;;
6850;SDS011;3464;42.728;23.296;2023-11-22T02:13:58;42.23;;;19.80;;
6850;SDS011;3464;42.728;23.296;2023-11-22T02:16:25;36.20;;;18.37;;
6850;SDS011;3464;42.728;23.296;2023-11-22T02:18:51;37.33;;;18.27;;
6850;SDS011;3464;42.728;23.296;2023-11-22T02:21:18;33.77;;;17.27;;
6850;SDS011;3464;42.728;23.296;2023-11-22T02:23:44;35.47;;;18.10;;
6850;SDS011;3464;42.728;23.296;2023-11-22T02:26:11;31.93;;;17.33;;
6850;SDS011;3464;42.728;23.296;2023-11-22T02:28:39;38.70;;;17.07;;
6850;SDS011;3464;42.728;23.296;2023-11-22T02:31:06;34.27;;;17.33;;
6850;SDS011;3464;42.728;23.296;2023-11-22T02:33:32;33.77;;;17.50;;
6850;SDS011;3464;42.728;23.296;2023-11-22T02:35:59;30.10;;;17.37;;
6850;SDS011;3464;42.728;23.296;2023-11-22T02:38:26;32.73;;;16.27;;
6850;SDS011;3464;42.728;23.296;2023-11-22T02:40:53;37.53;;;18.07;;
6850;SDS011;3464;42.728;23.296;2023-11-22T02:43:20;28.57;;;15.20;;
6850;SDS011;3464;42.728;23.296;2023-11-22T02:45:46;32.33;;;17.17;;
6850;SDS011;3464;42.728;23.296;2023-11-22T02:48:13;28.87;;;16.00;;
6850;SDS011;3464;42.728;23.296;2023-11-22T02:50:40;31.70;;;15.50;;
6850;SDS011;3464;42.728;23.296;2023-11-22T02:53:07;32.87;;;16.47;;
6850;SDS011;3464;42.728;23.296;2023-11-22T02:55:34;33.87;;;17.20;;
6850;SDS011;3464;42.728;23.296;2023-11-22T02:58:01;26.17;;;14.27;;
6850;SDS011;3464;42.728;23.296;2023-11-22T03:03:09;32.00;;;16.50;;
6850;SDS011;3464;42.728;23.296;2023-11-22T03:05:36;30.47;;;14.93;;
6850;SDS011;3464;42.728;23.296;2023-11-22T03:08:11;29.40;;;15.80;;
6850;SDS011;3464;42.728;23.296;2023-11-22T03:10:42;30.20;;;16.03;;
6850;SDS011;3464;42.728;23.296;2023-11-22T03:13:12;31.60;;;15.40;;
6850;SDS011;3464;42.728;23.296;2023-11-22T03:15:39;30.90;;;14.97;;
6850;SDS011;3464;42.728;23.296;2023-11-22T03:21:06;25.80;;;14.90;;
6850;SDS011;3464;42.728;23.296;2023-11-22T03:26:51;31.70;;;16.13;;
6850;SDS011;3464;42.728;23.296;2023-11-22T03:29:25;32.53;;;16.10;;
6850;SDS011;3464;42.728;23.296;2023-11-22T03:31:56;60.57;;;30.70;;
6850;SDS011;3464;42.728;23.296;2023-11-22T03:34:22;64.17;;;33.13;;
6850;SDS011;3464;42.728;23.296;2023-11-22T03:36:49;62.63;;;30.83;;
6850;SDS011;3464;42.728;23.296;2023-11-22T03:39:28;57.67;;;29.47;;
6850;SDS011;3464;42.728;23.296;2023-11-22T03:41:54;50.10;;;27.20;;
6850;SDS011;3464;42.728;23.296;2023-11-22T03:44:26;50.63;;;28.17;;
6850;SDS011;3464;42.728;23.296;2023-11-22T03:46:53;63.00;;;27.93;;
6850;SDS011;3464;42.728;23.296;2023-11-22T03:49:20;59.07;;;31.47;;
6850;SDS011;3464;42.728;23.296;2023-11-22T03:51:47;66.23;;;33.10;;
6850;SDS011;3464;42.728;23.296;2023-11-22T03:54:17;84.17;;;35.70;;
6850;SDS011;3464;42.728;23.296;2023-11-22T03:56:43;78.67;;;36.63;;
6850;SDS011;3464;42.728;23.296;2023-11-22T03:59:11;70.07;;;31.67;;
6850;SDS011;3464;42.728;23.296;2023-11-22T04:01:38;54.67;;;27.43;;
6850;SDS011;3464;42.728;23.296;2023-11-22T04:04:08;49.50;;;25.37;;
6850;SDS011;3464;42.728;23.296;2023-11-22T04:07:02;50.50;;;27.20;;
6850;SDS011;3464;42.728;23.296;2023-11-22T04:09:31;52.17;;;27.47;;
6850;SDS011;3464;42.728;23.296;2023-11-22T04:11:59;51.20;;;26.97;;
6850;SDS011;3464;42.728;23.296;2023-11-22T04:14:27;50.47;;;25.23;;
6850;SDS011;3464;42.728;23.296;2023-11-22T04:16:53;57.57;;;26.73;;
6850;SDS011;3464;42.728;23.296;2023-11-22T04:22:21;57.90;;;30.67;;
6850;SDS011;3464;42.728;23.296;2023-11-22T04:24:49;64.17;;;33.90;;
6850;SDS011;3464;42.728;23.296;2023-11-22T04:27:17;64.70;;;32.83;;
6850;SDS011;3464;42.728;23.296;2023-11-22T04:29:45;60.43;;;31.30;;
6850;SDS011;3464;42.728;23.296;2023-11-22T04:34:54;59.87;;;30.80;;
6850;SDS011;3464;42.728;23.296;2023-11-22T04:37:23;61.87;;;29.60;;
6850;SDS011;3464;42.728;23.296;2023-11-22T04:39:55;53.40;;;27.13;;
6850;SDS011;3464;42.728;23.296;2023-11-22T04:42:28;50.40;;;25.97;;
6850;SDS011;3464;42.728;23.296;2023-11-22T04:45:00;51.53;;;24.73;;
6850;SDS011;3464;42.728;23.296;2023-11-22T04:47:26;50.77;;;25.50;;
6850;SDS011;3464;42.728;23.296;2023-11-22T04:49:53;45.77;;;22.70;;
6850;SDS011;3464;42.728;23.296;2023-11-22T04:52:20;43.73;;;21.77;;
6850;SDS011;3464;42.728;23.296;2023-11-22T04:54:47;44.17;;;21.80;;
6850;SDS011;3464;42.728;23.296;2023-11-22T04:57:18;43.60;;;21.93;;
6850;SDS011;3464;42.728;23.296;2023-11-22T04:59:51;36.87;;;20.03;;
6850;SDS011;3464;42.728;23.296;2023-11-22T05:02:18;40.50;;;20.47;;
6850;SDS011;3464;42.728;23.296;2023-11-22T05:04:44;34.03;;;19.97;;
6850;SDS011;3464;42.728;23.296;2023-11-22T05:07:11;38.80;;;20.63;;
6850;SDS011;3464;42.728;23.296;2023-11-22T05:09:38;37.83;;;20.03;;
6850;SDS011;3464;42.728;23.296;2023-11-22T05:12:05;38.07;;;19.30;;
6850;SDS011;3464;42.728;23.296;2023-11-22T05:14:32;35.93;;;17.70;;
6850;SDS011;3464;42.728;23.296;2023-11-22T05:17:02;36.50;;;19.30;;
6850;SDS011;3464;42.728;23.296;2023-11-22T05:19:30;39.37;;;21.17;;
6850;SDS011;3464;42.728;23.296;2023-11-22T05:21:57;37.30;;;20.17;;
6850;SDS011;3464;42.728;23.296;2023-11-22T05:24:23;35.07;;;18.10;;
6850;SDS011;3464;42.728;23.296;2023-11-22T05:26:50;32.03;;;18.07;;
6850;SDS011;3464;42.728;23.296;2023-11-22T05:32:33;32.87;;;17.97;;
6850;SDS011;3464;42.728;23.296;2023-11-22T05:35:05;34.20;;;18.50;;
6850;SDS011;3464;42.728;23.296;2023-11-22T05:37:34;34.93;;;18.60;;
6850;SDS011;3464;42.728;23.296;2023-11-22T05:40:03;33.20;;;19.63;;
6850;SDS011;3464;42.728;23.296;2023-11-22T05:42:31;39.60;;;20.43;;
6850;SDS011;3464;42.728;23.296;2023-11-22T05:45:08;41.00;;;19.80;;
6850;SDS011;3464;42.728;23.296;2023-11-22T05:47:35;35.50;;;19.10;;
6850;SDS011;3464;42.728;23.296;2023-11-22T05:50:02;35.17;;;17.70;;
6850;SDS011;3464;42.728;23.296;2023-11-22T05:52:30;28.20;;;14.70;;
6850;SDS011;3464;42.728;23.296;2023-11-22T06:00:48;27.90;;;13.00;;
6850;SDS011;3464;42.728;23.296;2023-11-22T06:03:19;29.17;;;14.13;;
6850;SDS011;3464;42.728;23.296;2023-11-22T06:05:53;26.47;;;14.00;;
6850;SDS011;3464;42.728;23.296;2023-11-22T06:08:20;26.30;;;14.73;;
6850;SDS011;3464;42.728;23.296;2023-11-22T06:10:50;30.67;;;15.90;;
6850;SDS011;3464;42.728;23.296;2023-11-22T06:13:17;31.80;;;13.80;;
6850;SDS011;3464;42.728;23.296;2023-11-22T06:15:47;26.77;;;12.87;;
6850;SDS011;3464;42.728;23.296;2023-11-22T06:18:13;27.50;;;12.83;;
6850;SDS011;3464;42.728;23.296;2023-11-22T06:20:40;25.10;;;12.40;;
6850;SDS011;3464;42.728;23.296;2023-11-22T06:23:07;25.13;;;13.83;;
6850;SDS011;3464;42.728;23.296;2023-11-22T06:25:34;29.63;;;14.40;;
6850;SDS011;3464;42.728;23.296;2023-11-22T06:28:03;25.07;;;13.70;;
6850;SDS011;3464;42.728;23.296;2023-11-22T06:30:34;41.27;;;16.83;;
6850;SDS011;3464;42.728;23.296;2023-11-22T06:33:01;31.13;;;16.80;;
6850;SDS011;3464;42.728;23.296;2023-11-22T06:35:28;75.33;;;17.87;;
6850;SDS011;3464;42.728;23.296;2023-11-22T06:37:58;30.80;;;15.07;;
6850;SDS011;3464;42.728;23.296;2023-11-22T06:40:24;27.87;;;15.87;;
6850;SDS011;3464;42.728;23.296;2023-11-22T06:43:00;31.30;;;16.20;;
6850;SDS011;3464;42.728;23.296;2023-11-22T06:45:28;31.77;;;18.23;;
6850;SDS011;3464;42.728;23.296;2023-11-22T06:47:55;39.80;;;19.13;;
6850;SDS011;3464;42.728;23.296;2023-11-22T06:50:22;36.20;;;20.43;;
6850;SDS011;3464;42.728;23.296;2023-11-22T06:52:51;33.70;;;17.77;;
6850;SDS011;3464;42.728;23.296;2023-11-22T06:55:17;35.20;;;17.90;;
6850;SDS011;3464;42.728;23.296;2023-11-22T06:57:44;36.70;;;17.80;;
6850;SDS011;3464;42.728;23.296;2023-11-22T07:00:12;33.90;;;17.30;;
6850;SDS011;3464;42.728;23.296;2023-11-22T07:02:39;37.57;;;18.00;;
6850;SDS011;3464;42.728;23.296;2023-11-22T07:05:07;38.30;;;17.90;;
6850;SDS011;3464;42.728;23.296;2023-11-22T07:07:34;37.10;;;18.60;;
6850;SDS011;3464;42.728;23.296;2023-11-22T07:10:01;40.43;;;19.27;;
6850;SDS011;3464;42.728;23.296;2023-11-22T07:12:29;35.03;;;19.03;;
6850;SDS011;3464;42.728;23.296;2023-11-22T07:14:56;36.37;;;19.23;;
6850;SDS011;3464;42.728;23.296;2023-11-22T07:17:23;37.40;;;18.90;;
6850;SDS011;3464;42.728;23.296;2023-11-22T07:19:50;35.77;;;20.27;;
6850;SDS011;3464;42.728;23.296;2023-11-22T07:22:17;40.40;;;21.27;;
6850;SDS011;3464;42.728;23.296;2023-11-22T07:24:43;44.10;;;21.63;;
6850;SDS011;3464;42.728;23.296;2023-11-22T07:27:11;41.73;;;21.10;;
6850;SDS011;3464;42.728;23.296;2023-11-22T07:29:41;43.13;;;18.40;;
6850;SDS011;3464;42.728;23.296;2023-11-22T07:32:08;41.07;;;19.43;;
6850;SDS011;3464;42.728;23.296;2023-11-22T07:34:36;24.53;;;13.60;;
6850;SDS011;3464;42.728;23.296;2023-11-22T07:37:03;33.80;;;18.20;;
6850;SDS011;3464;42.728;23.296;2023-11-22T07:39:31;34.10;;;18.20;;
6850;SDS011;3464;42.728;23.296;2023-11-22T07:42:02;34.70;;;18.93;;
6850;SDS011;3464;42.728;23.296;2023-11-22T07:44:29;36.27;;;18.53;;
6850;SDS011;3464;42.728;23.296;2023-11-22T07:46:58;41.17;;;21.37;;
6850;SDS011;3464;42.728;23.296;2023-11-22T07:49:25;54.87;;;24.73;;
6850;SDS011;3464;42.728;23.296;2023-11-22T07:51:53;50.93;;;26.63;;
6850;SDS011;3464;42.728;23.296;2023-11-22T07:54:19;47.60;;;25.67;;
6850;SDS011;3464;42.728;23.296;2023-11-22T07:56:46;52.13;;;29.37;;
6850;SDS011;3464;42.728;23.296;2023-11-22T07:59:13;51.97;;;26.47;;
6850;SDS011;3464;42.728;23.296;2023-11-22T08:01:42;56.37;;;27.80;;
6850;SDS011;3464;42.728;23.296;2023-11-22T08:04:09;54.20;;;30.37;;
6850;SDS011;3464;42.728;23.296;2023-11-22T08:06:35;67.40;;;37.50;;
6850;SDS011;3464;42.728;23.296;2023-11-22T08:09:03;66.40;;;40.37;;
6850;SDS011;3464;42.728;23.296;2023-11-22T08:11:31;71.93;;;37.60;;
6850;SDS011;3464;42.728;23.296;2023-11-22T08:14:00;70.87;;;36.20;;
6850;SDS011;3464;42.728;23.296;2023-11-22T08:16:26;53.53;;;33.90;;
6850;SDS011;3464;42.728;23.296;2023-11-22T08:18:54;45.83;;;25.80;;
6850;SDS011;3464;42.728;23.296;2023-11-22T08:21:22;53.00;;;26.57;;
6850;SDS011;3464;42.728;23.296;2023-11-22T08:26:38;25.60;;;13.10;;
6850;SDS011;3464;42.728;23.296;2023-11-22T08:34:36;22.70;;;11.20;;
6850;SDS011;3464;42.728;23.296;2023-11-22T08:37:03;22.80;;;10.80;;
6850;SDS011;3464;42.728;23.296;2023-11-22T08:39:31;21.70;;;10.70;;
6850;SDS011;3464;42.728;23.296;2023-11-22T08:42:00;22.73;;;11.30;;
6850;SDS011;3464;42.728;23.296;2023-11-22T08:44:29;21.60;;;11.40;;
6850;SDS011;3464;42.728;23.296;2023-11-22T08:47:00;21.17;;;11.07;;
6850;SDS011;3464;42.728;23.296;2023-11-22T08:49:26;22.40;;;11.07;;
6850;SDS011;3464;42.728;23.296;2023-11-22T08:51:55;19.00;;;9.47;;
6850;SDS011;3464;42.728;23.296;2023-11-22T08:54:23;26.90;;;12.20;;
6850;SDS011;3464;42.728;23.296;2023-11-22T08:56:50;26.53;;;12.67;;
6850;SDS011;3464;42.728;23.296;2023-11-22T08:59:17;27.23;;;12.23;;
6850;SDS011;3464;42.728;23.296;2023-11-22T09:01:44;23.70;;;11.87;;
6850;SDS011;3464;42.728;23.296;2023-11-22T09:04:13;22.40;;;10.90;;
6850;SDS011;3464;42.728;23.296;2023-11-22T09:06:41;30.00;;;13.33;;
6850;SDS011;3464;42.728;23.296;2023-11-22T09:09:08;24.50;;;12.20;;
6850;SDS011;3464;42.728;23.296;2023-11-22T09:11:36;26.50;;;13.80;;
6850;SDS011;3464;42.728;23.296;2023-11-22T09:14:13;27.13;;;14.50;;
6850;SDS011;3464;42.728;23.296;2023-11-22T09:16:42;32.97;;;16.10;;
6850;SDS011;3464;42.728;23.296;2023-11-22T09:19:09;29.10;;;16.10;;
6850;SDS011;3464;42.728;23.296;2023-11-22T09:21:41;32.80;;;16.43;;
6850;SDS011;3464;42.728;23.296;2023-11-22T09:24:10;34.80;;;16.37;;
6850;SDS011;3464;42.728;23.296;2023-11-22T09:26:45;31.10;;;16.67;;
6850;SDS011;3464;42.728;23.296;2023-11-22T09:29:13;33.93;;;17.73;;
6850;SDS011;3464;42.728;23.296;2023-11-22T09:34:58;34.57;;;18.07;;
6850;SDS011;3464;42.728;23.296;2023-11-22T09:37:24;34.50;;;17.67;;
6850;SDS011;3464;42.728;23.296;2023-11-22T09:39:51;34.40;;;18.13;;
6850;SDS011;3464;42.728;23.296;2023-11-22T09:42:18;34.73;;;19.00;;
6850;SDS011;3464;42.728;23.296;2023-11-22T09:44:44;36.17;;;19.00;;
6850;SDS011;3464;42.728;23.296;2023-11-22T09:47:11;39.13;;;20.13;;
6850;SDS011;3464;42.728;23.296;2023-11-22T09:49:38;35.50;;;20.10;;
6850;SDS011;3464;42.728;23.296;2023-11-22T09:52:05;40.53;;;21.53;;
6850;SDS011;3464;42.728;23.296;2023-11-22T09:54:33;39.83;;;20.90;;
6850;SDS011;3464;42.728;23.296;2023-11-22T09:56:59;36.67;;;20.93;;
6850;SDS011;3464;42.728;23.296;2023-11-22T09:59:26;38.87;;;19.20;;
6850;SDS011;3464;42.728;23.296;2023-11-22T10:01:53;32.40;;;18.90;;
6850;SDS011;3464;42.728;23.296;2023-11-22T10:04:20;35.00;;;19.37;;
6850;SDS011;3464;42.728;23.296;2023-11-22T10:06:47;40.00;;;21.40;;
6850;SDS011;3464;42.728;23.296;2023-11-22T10:15:24;38.23;;;20.40;;
6850;SDS011;3464;42.728;23.296;2023-11-22T10:17:54;38.27;;;21.27;;
6850;SDS011;3464;42.728;23.296;2023-11-22T10:20:24;36.30;;;20.30;;
6850;SDS011;3464;42.728;23.296;2023-11-22T10:22:50;35.80;;;19.30;;
6850;SDS011;3464;42.728;23.296;2023-11-22T10:25:17;41.70;;;23.23;;
6850;SDS011;3464;42.728;23.296;2023-11-22T10:27:46;46.83;;;25.30;;
6850;SDS011;3464;42.728;23.296;2023-11-22T10:30:13;49.70;;;25.33;;
6850;SDS011;3464;42.728;23.296;2023-11-22T10:32:42;47.10;;;26.17;;
6850;SDS011;3464;42.728;23.296;2023-11-22T10:35:08;45.50;;;24.80;;
6850;SDS011;3464;42.728;23.296;2023-11-22T10:37:35;47.30;;;25.30;;
6850;SDS011;3464;42.728;23.296;2023-11-22T10:40:02;45.33;;;24.00;;
6850;SDS011;3464;42.728;23.296;2023-11-22T10:42:29;49.33;;;28.30;;
6850;SDS011;3464;42.728;23.296;2023-11-22T10:44:56;46.17;;;28.03;;
6850;SDS011;3464;42.728;23.296;2023-11-22T10:56:55;29.90;;;14.37;;
6850;SDS011;3464;42.728;23.296;2023-11-22T10:59:26;23.77;;;11.90;;
6850;SDS011;3464;42.728;23.296;2023-11-22T11:02:21;26.23;;;12.93;;
6850;SDS011;3464;42.728;23.296;2023-11-22T11:18:36;21.60;;;11.43;;
6850;SDS011;3464;42.728;23.296;2023-11-22T11:27:03;24.13;;;12.53;;
6850;SDS011;3464;42.728;23.296;2023-11-22T11:29:32;22.10;;;12.40;;
6850;SDS011;3464;42.728;23.296;2023-11-22T11:34:46;24.13;;;12.43;;
6850;SDS011;3464;42.728;23.296;2023-11-22T11:37:13;23.00;;;10.97;;
6850;SDS011;3464;42.728;23.296;2023-11-22T11:39:40;20.47;;;11.00;;
6850;SDS011;3464;42.728;23.296;2023-11-22T11:42:08;24.33;;;12.00;;
6850;SDS011;3464;42.728;23.296;2023-11-22T11:44:35;22.70;;;11.77;;
6850;SDS011;3464;42.728;23.296;2023-11-22T11:49:37;21.43;;;11.40;;
6850;SDS011;3464;42.728;23.296;2023-11-22T11:52:03;28.80;;;12.47;;
6850;SDS011;3464;42.728;23.296;2023-11-22T11:54:30;25.50;;;12.00;;
6850;SDS011;3464;42.728;23.296;2023-11-22T11:57:00;25.00;;;12.87;;
6850;SDS011;3464;42.728;23.296;2023-11-22T11:59:28;32.90;;;13.67;;
6850;SDS011;3464;42.728;23.296;2023-11-22T12:01:55;24.87;;;13.00;;
6850;SDS011;3464;42.728;23.296;2023-11-22T12:04:23;30.63;;;13.00;;
6850;SDS011;3464;42.728;23.296;2023-11-22T12:06:51;29.60;;;13.80;;
6850;SDS011;3464;42.728;23.296;2023-11-22T12:09:22;36.47;;;13.80;;
6850;SDS011;3464;42.728;23.296;2023-11-22T12:11:51;56.43;;;15.23;;
6850;SDS011;3464;42.728;23.296;2023-11-22T12:14:19;32.30;;;14.00;;
6850;SDS011;3464;42.728;23.296;2023-11-22T12:16:50;33.27;;;14.00;;
6850;SDS011;3464;42.728;23.296;2023-11-22T12:19:20;26.67;;;12.47;;
6850;SDS011;3464;42.728;23.296;2023-11-22T12:21:49;25.60;;;12.67;;
6850;SDS011;3464;42.728;23.296;2023-11-22T12:24:16;25.50;;;12.77;;
6850;SDS011;3464;42.728;23.296;2023-11-22T12:26:45;24.83;;;12.47;;
6850;SDS011;3464;42.728;23.296;2023-11-22T12:29:13;26.30;;;13.40;;
6850;SDS011;3464;42.728;23.296;2023-11-22T12:31:48;29.83;;;13.97;;
6850;SDS011;3464;42.728;23.296;2023-11-22T12:34:17;24.93;;;13.00;;
6850;SDS011;3464;42.728;23.296;2023-11-22T12:36:45;27.13;;;13.70;;
6850;SDS011;3464;42.728;23.296;2023-11-22T12:39:11;25.70;;;13.93;;
6850;SDS011;3464;42.728;23.296;2023-11-22T12:41:43;28.13;;;13.27;;
6850;SDS011;3464;42.728;23.296;2023-11-22T12:44:13;25.13;;;13.50;;
6850;SDS011;3464;42.728;23.296;2023-11-22T12:46:46;28.80;;;13.63;;
6850;SDS011;3464;42.728;23.296;2023-11-22T12:49:15;27.17;;;14.40;;
6850;SDS011;3464;42.728;23.296;2023-11-22T12:51:46;28.50;;;13.27;;
6850;SDS011;3464;42.728;23.296;2023-11-22T12:54:15;25.83;;;13.77;;
6850;SDS011;3464;42.728;23.296;2023-11-22T12:56:46;26.60;;;14.27;;
6850;SDS011;3464;42.728;23.296;2023-11-22T12:59:17;24.30;;;13.30;;
6850;SDS011;3464;42.728;23.296;2023-11-22T13:01:48;28.13;;;12.93;;
6850;SDS011;3464;42.728;23.296;2023-11-22T13:04:14;23.27;;;12.17;;
6850;SDS011;3464;42.728;23.296;2023-11-22T13:06:41;28.53;;;13.57;;
6850;SDS011;3464;42.728;23.296;2023-11-22T13:09:08;20.30;;;10.43;;
6850;SDS011;3464;42.728;23.296;2023-11-22T13:11:34;23.13;;;11.00;;
6850;SDS011;3464;42.728;23.296;2023-11-22T13:14:01;19.47;;;9.53;;
6850;SDS011;3464;42.728;23.296;2023-11-22T13:16:27;21.27;;;10.77;;
6850;SDS011;3464;42.728;23.296;2023-11-22T13:18:54;19.27;;;8.90;;
6850;SDS011;3464;42.728;23.296;2023-11-22T13:21:21;19.90;;;8.43;;
6850;SDS011;3464;42.728;23.296;2023-11-22T13:23:47;19.13;;;9.03;;
6850;SDS011;3464;42.728;23.296;2023-11-22T13:26:14;19.87;;;9.43;;
6850;SDS011;3464;42.728;23.296;2023-11-22T13:28:41;19.40;;;9.07;;
6850;SDS011;3464;42.728;23.296;2023-11-22T13:31:09;19.40;;;10.50;;
6850;SDS011;3464;42.728;23.296;2023-11-22T13:33:35;24.10;;;11.00;;
6850;SDS011;3464;42.728;23.296;2023-11-22T13:36:02;21.73;;;11.50;;
6850;SDS011;3464;42.728;23.296;2023-11-22T13:38:29;24.30;;;12.63;;
6850;SDS011;3464;42.728;23.296;2023-11-22T13:40:57;23.07;;;12.07;;
6850;SDS011;3464;42.728;23.296;2023-11-22T13:43:46;26.97;;;12.83;;
6850;SDS011;3464;42.728;23.296;2023-11-22T13:46:14;26.40;;;12.37;;
6850;SDS011;3464;42.728;23.296;2023-11-22T13:48:40;21.80;;;12.03;;
6850;SDS011;3464;42.728;23.296;2023-11-22T13:51:07;23.73;;;12.60;;
6850;SDS011;3464;42.728;23.296;2023-11-22T13:53:33;27.50;;;12.63;;
6850;SDS011;3464;42.728;23.296;2023-11-22T13:56:00;31.50;;;14.77;;
6850;SDS011;3464;42.728;23.296;2023-11-22T13:58:26;29.93;;;13.50;;
6850;SDS011;3464;42.728;23.296;2023-11-22T14:00:53;27.83;;;14.70;;
6850;SDS011;3464;42.728;23.296;2023-11-22T14:03:20;30.00;;;13.70;;
6850;SDS011;3464;42.728;23.296;2023-11-22T14:05:46;32.70;;;15.10;;
6850;SDS011;3464;42.728;23.296;2023-11-22T14:08:13;29.43;;;15.03;;
6850;SDS011;3464;42.728;23.296;2023-11-22T14:10:40;29.23;;;15.83;;
6850;SDS011;3464;42.728;23.296;2023-11-22T14:13:07;27.73;;;14.70;;
6850;SDS011;3464;42.728;23.296;2023-11-22T14:15:35;34.07;;;16.87;;
6850;SDS011;3464;42.728;23.296;2023-11-22T14:18:01;32.13;;;16.20;;
6850;SDS011;3464;42.728;23.296;2023-11-22T14:20:28;30.83;;;16.57;;
6850;SDS011;3464;42.728;23.296;2023-11-22T14:22:56;28.43;;;16.13;;
6850;SDS011;3464;42.728;23.296;2023-11-22T14:25:23;30.90;;;15.77;;
6850;SDS011;3464;42.728;23.296;2023-11-22T14:46:46;29.63;;;14.03;;
6850;SDS011;3464;42.728;23.296;2023-11-22T14:49:12;34.50;;;16.40;;
6850;SDS011;3464;42.728;23.296;2023-11-22T14:51:39;32.47;;;14.73;;
6850;SDS011;3464;42.728;23.296;2023-11-22T14:54:06;32.77;;;14.30;;
6850;SDS011;3464;42.728;23.296;2023-11-22T14:56:38;29.60;;;15.10;;
6850;SDS011;3464;42.728;23.296;2023-11-22T14:59:06;28.77;;;14.30;;
6850;SDS011;3464;42.728;23.296;2023-11-22T15:01:33;30.80;;;13.50;;
6850;SDS011;3464;42.728;23.296;2023-11-22T15:04:00;46.10;;;13.87;;
6850;SDS011;3464;42.728;23.296;2023-11-22T15:06:26;33.07;;;14.33;;
6850;SDS011;3464;42.728;23.296;2023-11-22T15:08:54;30.30;;;13.30;;
6850;SDS011;3464;42.728;23.296;2023-11-22T15:11:21;36.07;;;15.23;;
6850;SDS011;3464;42.728;23.296;2023-11-22T15:13:49;30.03;;;15.10;;
6850;SDS011;3464;42.728;23.296;2023-11-22T15:16:17;29.90;;;15.43;;
6850;SDS011;3464;42.728;23.296;2023-11-22T15:18:44;28.00;;;13.17;;
6850;SDS011;3464;42.728;23.296;2023-11-22T15:21:10;31.67;;;16.17;;
6850;SDS011;3464;42.728;23.296;2023-11-22T15:23:39;25.27;;;13.77;;
6850;SDS011;3464;42.728;23.296;2023-11-22T15:26:06;22.20;;;10.80;;
6850;SDS011;3464;42.728;23.296;2023-11-22T15:28:32;23.80;;;12.40;;
6850;SDS011;3464;42.728;23.296;2023-11-22T15:30:59;29.23;;;14.57;;
6850;SDS011;3464;42.728;23.296;2023-11-22T15:33:25;25.57;;;13.07;;
6850;SDS011;3464;42.728;23.296;2023-11-22T15:35:54;37.10;;;17.40;;
6850;SDS011;3464;42.728;23.296;2023-11-22T15:38:20;45.70;;;21.33;;
6850;SDS011;3464;42.728;23.296;2023-11-22T15:40:48;72.17;;;29.03;;
6850;SDS011;3464;42.728;23.296;2023-11-22T15:43:14;38.50;;;16.80;;
6850;SDS011;3464;42.728;23.296;2023-11-22T15:45:41;37.83;;;17.10;;
6850;SDS011;3464;42.728;23.296;2023-11-22T15:48:08;24.10;;;11.20;;
6850;SDS011;3464;42.728;23.296;2023-11-22T15:50:35;20.37;;;9.70;;
6850;SDS011;3464;42.728;23.296;2023-11-22T15:53:04;19.43;;;9.10;;
6850;SDS011;3464;42.728;23.296;2023-11-22T15:55:31;24.57;;;11.17;;
6850;SDS011;3464;42.728;23.296;2023-11-22T15:58:04;21.27;;;8.50;;
6850;SDS011;3464;42.728;23.296;2023-11-22T16:00:35;19.97;;;9.43;;
6850;SDS011;3464;42.728;23.296;2023-11-22T16:03:03;24.97;;;8.83;;
6850;SDS011;3464;42.728;23.296;2023-11-22T16:05:30;19.13;;;8.07;;
6850;SDS011;3464;42.728;23.296;2023-11-22T16:07:56;18.90;;;8.67;;
6850;SDS011;3464;42.728;23.296;2023-11-22T16:10:24;17.50;;;8.27;;
6850;SDS011;3464;42.728;23.296;2023-11-22T16:12:51;20.73;;;9.23;;
6850;SDS011;3464;42.728;23.296;2023-11-22T16:15:18;19.23;;;8.93;;